createdAt,value
2019-01-23T00:01:02.011Z,5.10
2019-01-23T00:03:31.390Z,5.13
2019-01-23T00:06:00.894Z,5.14
2019-01-23T00:08:30.233Z,5.15
2019-01-23T00:10:59.574Z,5.16
2019-01-23T00:13:28.940Z,5.15
2019-01-23T00:15:58.353Z,5.17
2019-01-23T00:18:27.723Z,5.17
2019-01-23T00:20:57.062Z,5.15
2019-01-23T00:23:26.450Z,5.15
2019-01-23T00:25:55.807Z,5.15
2019-01-23T00:28:25.163Z,5.16
2019-01-23T00:30:54.512Z,5.17
2019-01-23T00:33:23.875Z,5.19
2019-01-23T00:35:53.275Z,5.20
2019-01-23T00:38:22.705Z,5.22
2019-01-23T00:40:52.069Z,5.22
2019-01-23T00:43:21.440Z,5.23
2019-01-23T00:45:50.792Z,5.25
2019-01-23T00:48:20.174Z,5.27
2019-01-23T00:50:49.508Z,5.28
2019-01-23T00:53:18.963Z,5.29
2019-01-23T00:55:48.330Z,5.30
2019-01-23T00:58:17.688Z,5.31
2019-01-23T01:00:47.045Z,5.32
2019-01-23T01:03:16.424Z,5.33
2019-01-23T01:05:45.926Z,5.34
2019-01-23T01:08:15.350Z,5.36
2019-01-23T01:10:44.703Z,5.37
2019-01-23T01:13:14.158Z,5.37
2019-01-23T01:15:43.617Z,5.38
2019-01-23T01:18:13.020Z,5.37
2019-01-23T01:20:42.367Z,5.38
2019-01-23T01:23:11.754Z,5.39
2019-01-23T01:25:41.089Z,5.39
2019-01-23T01:28:10.460Z,5.40
2019-01-23T01:30:40.728Z,5.40
2019-01-23T01:33:10.123Z,5.39
2019-01-23T01:35:39.468Z,5.39
2019-01-23T01:38:08.848Z,5.38
2019-01-23T01:40:38.231Z,5.38
2019-01-23T01:43:07.607Z,5.36
2019-01-23T01:45:36.974Z,5.34
2019-01-23T01:48:06.351Z,5.34
2019-01-23T01:50:35.704Z,5.34
2019-01-23T01:53:05.041Z,5.35
2019-01-23T01:55:34.431Z,5.34
2019-01-23T01:58:04.009Z,5.34
2019-01-23T02:00:33.371Z,5.35
2019-01-23T02:03:04.545Z,5.35
2019-01-23T02:05:33.979Z,5.37
2019-01-23T02:08:03.344Z,5.36
2019-01-23T02:10:32.731Z,5.37
2019-01-23T02:13:17.413Z,5.37
2019-01-23T02:15:46.776Z,5.37
2019-01-23T02:18:16.121Z,5.36
2019-01-23T02:20:45.480Z,5.36
2019-01-23T02:23:14.804Z,5.35
2019-01-23T02:25:44.167Z,5.33
2019-01-23T02:28:14.554Z,5.32
2019-01-23T02:30:45.132Z,5.31
2019-01-23T02:33:14.540Z,5.30
2019-01-23T02:35:43.936Z,5.30
2019-01-23T02:38:13.283Z,5.29
2019-01-23T02:40:42.687Z,5.27
2019-01-23T02:43:12.088Z,5.24
2019-01-23T02:45:41.462Z,5.20
2019-01-23T02:48:10.853Z,5.21
2019-01-23T02:50:40.224Z,5.18
2019-01-23T02:53:09.579Z,5.18
2019-01-23T02:55:38.975Z,5.19
2019-01-23T02:58:08.342Z,5.19
2019-01-23T03:00:37.711Z,5.18
2019-01-23T03:03:07.428Z,5.19
2019-01-23T03:05:36.791Z,5.20
2019-01-23T03:08:07.264Z,5.21
2019-01-23T03:10:57.027Z,5.22
2019-01-23T03:13:26.415Z,5.22
2019-01-23T03:15:55.787Z,5.23
2019-01-23T03:18:25.121Z,5.23
2019-01-23T03:20:55.583Z,5.24
2019-01-23T03:23:24.920Z,5.26
2019-01-23T03:25:54.318Z,5.29
2019-01-23T03:28:23.760Z,5.31
2019-01-23T03:30:53.151Z,5.32
2019-01-23T03:33:22.537Z,5.33
2019-01-23T03:35:51.903Z,5.34
2019-01-23T03:38:21.285Z,5.34
2019-01-23T03:40:50.676Z,5.35
2019-01-23T03:43:23.586Z,5.34
2019-01-23T03:45:52.934Z,5.34
2019-01-23T03:48:24.620Z,5.33
2019-01-23T03:50:53.977Z,5.32
2019-01-23T03:53:23.322Z,5.33
2019-01-23T03:55:52.708Z,5.35
2019-01-23T03:58:22.053Z,5.34
2019-01-23T04:00:51.405Z,5.36
2019-01-23T04:03:20.786Z,5.36
2019-01-23T04:05:50.140Z,5.36
2019-01-23T04:08:19.538Z,5.37
2019-01-23T04:10:48.937Z,5.38
2019-01-23T04:13:18.312Z,5.39
2019-01-23T04:15:47.666Z,5.40
2019-01-23T04:18:17.027Z,5.39
2019-01-23T04:20:46.377Z,5.38
2019-01-23T04:23:15.736Z,5.36
2019-01-23T04:25:48.387Z,5.35
2019-01-23T04:28:17.764Z,5.34
2019-01-23T04:30:47.114Z,5.33
2019-01-23T04:33:16.490Z,5.32
2019-01-23T04:35:45.840Z,5.31
2019-01-23T04:38:15.219Z,5.30
2019-01-23T04:40:44.587Z,5.28
2019-01-23T04:43:13.945Z,5.26
2019-01-23T04:45:43.308Z,5.22
2019-01-23T04:48:12.724Z,5.20
2019-01-23T04:50:59.788Z,5.18
2019-01-23T04:53:35.893Z,5.15
2019-01-23T04:56:05.447Z,5.12
2019-01-23T04:58:34.844Z,5.10
2019-01-23T05:01:04.283Z,5.09
2019-01-23T05:03:33.656Z,5.07
2019-01-23T05:06:03.123Z,5.04
2019-01-23T05:08:32.474Z,5.03
2019-01-23T05:11:01.829Z,5.01
2019-01-23T05:13:31.201Z,4.99
2019-01-23T05:16:00.574Z,4.98
2019-01-23T05:18:29.943Z,4.97
2019-01-23T05:20:59.294Z,4.95
2019-01-23T05:23:28.725Z,4.94
2019-01-23T05:25:58.064Z,4.90
2019-01-23T05:28:30.524Z,4.87
2019-01-23T05:30:59.889Z,4.81
2019-01-23T05:33:29.284Z,4.76
2019-01-23T05:35:58.619Z,4.71
2019-01-23T05:38:27.967Z,4.65
2019-01-23T05:41:07.358Z,4.61
2019-01-23T05:43:36.705Z,4.55
2019-01-23T05:46:06.099Z,4.52
2019-01-23T05:48:35.502Z,4.48
2019-01-23T05:51:04.847Z,4.45
2019-01-23T05:53:34.235Z,4.44
2019-01-23T05:56:03.592Z,4.43
2019-01-23T05:58:32.949Z,4.42
2019-01-23T06:01:02.326Z,4.43
2019-01-23T06:03:32.243Z,4.42
2019-01-23T06:06:01.641Z,4.42
2019-01-23T06:08:30.990Z,4.43
2019-01-23T06:11:00.370Z,4.43
2019-01-23T06:13:29.793Z,4.42
2019-01-23T06:15:59.198Z,4.44
2019-01-23T06:18:28.576Z,4.45
2019-01-23T06:20:57.935Z,4.45
2019-01-23T06:23:27.298Z,4.47
2019-01-23T06:25:56.719Z,4.48
2019-01-23T06:28:26.050Z,4.52
2019-01-23T06:30:55.430Z,4.54
2019-01-23T06:33:24.793Z,4.57
2019-01-23T06:35:54.186Z,4.59
2019-01-23T06:38:23.557Z,4.62
2019-01-23T06:40:52.932Z,4.67
2019-01-23T06:43:22.370Z,4.70
2019-01-23T06:45:51.751Z,4.74
2019-01-23T06:48:21.135Z,4.77
2019-01-23T06:50:50.530Z,4.80
2019-01-23T06:53:19.871Z,4.84
2019-01-23T06:55:49.256Z,4.85
2019-01-23T06:58:18.691Z,4.85
2019-01-23T07:00:48.075Z,4.83
2019-01-23T07:03:17.670Z,4.79
2019-01-23T07:05:47.029Z,4.77
2019-01-23T07:08:16.392Z,4.75
2019-01-23T07:10:45.764Z,4.73
2019-01-23T07:13:15.123Z,4.72
2019-01-23T07:15:44.501Z,4.73
2019-01-23T07:18:13.896Z,4.75
2019-01-23T07:20:43.265Z,4.77
2019-01-23T07:23:12.649Z,4.78
2019-01-23T07:25:42.011Z,4.78
2019-01-23T07:28:11.382Z,4.79
2019-01-23T07:30:42.262Z,4.81
2019-01-23T07:33:11.648Z,4.84
2019-01-23T07:35:41.012Z,4.84
2019-01-23T07:38:10.354Z,4.84
2019-01-23T07:40:39.720Z,4.86
2019-01-23T07:43:10.116Z,4.88
2019-01-23T07:45:39.473Z,4.89
2019-01-23T07:48:08.822Z,4.90
2019-01-23T07:50:38.396Z,4.90
2019-01-23T07:53:07.849Z,4.90
2019-01-23T07:55:37.187Z,4.92
2019-01-23T07:58:06.592Z,4.92
2019-01-23T08:00:35.978Z,4.93
2019-01-23T08:03:06.006Z,4.94
2019-01-23T08:05:35.351Z,4.95
2019-01-23T08:08:05.040Z,4.96
2019-01-23T08:10:34.388Z,4.96
2019-01-23T08:13:03.766Z,4.98
2019-01-23T08:15:35.258Z,4.99
2019-01-23T08:18:05.113Z,4.99
2019-01-23T08:20:34.499Z,5.00
2019-01-23T08:23:04.129Z,5.00
2019-01-23T08:25:33.549Z,5.00
2019-01-23T08:28:03.004Z,5.01
2019-01-23T08:30:38.614Z,5.01
2019-01-23T08:33:03.596Z,5.01
2019-01-23T08:35:33.028Z,5.02
2019-01-23T08:38:02.376Z,5.02
2019-01-23T08:40:31.777Z,5.03
2019-01-23T08:43:01.165Z,5.05
2019-01-23T08:45:30.519Z,5.07
2019-01-23T08:47:59.876Z,5.08
2019-01-23T08:50:40.516Z,5.11
2019-01-23T08:53:09.873Z,5.13
2019-01-23T08:55:39.284Z,5.17
2019-01-23T08:58:08.709Z,5.19
2019-01-23T09:00:38.050Z,5.22
2019-01-23T09:03:07.697Z,5.25
2019-01-23T09:05:37.048Z,5.27
2019-01-23T09:08:07.284Z,5.28
2019-01-23T09:10:36.731Z,5.31
2019-01-23T09:13:06.142Z,5.31
2019-01-23T09:15:35.518Z,5.34
2019-01-23T09:18:07.073Z,5.37
2019-01-23T09:20:36.578Z,5.40
2019-01-23T09:23:05.998Z,5.41
2019-01-23T09:25:35.362Z,5.43
2019-01-23T09:28:04.923Z,5.45
2019-01-23T09:30:43.600Z,5.46
2019-01-23T09:33:41.917Z,5.48
2019-01-23T09:36:54.731Z,5.50
2019-01-23T09:40:03.526Z,5.51
2019-01-23T09:43:12.441Z,5.54
2019-01-23T09:46:29.035Z,5.59
2019-01-23T09:49:42.082Z,5.61
2019-01-23T09:53:00.044Z,5.64
2019-01-23T09:55:29.410Z,5.66
2019-01-23T09:58:05.410Z,5.70
2019-01-23T10:00:34.763Z,5.71
2019-01-23T10:03:04.233Z,5.75
2019-01-23T10:05:33.576Z,5.75
2019-01-23T10:08:02.965Z,5.77
2019-01-23T10:10:32.307Z,5.80
2019-01-23T10:13:01.668Z,5.82
2019-01-23T10:15:38.404Z,5.83
2019-01-23T10:18:07.769Z,5.84
2019-01-23T10:20:37.118Z,5.86
2019-01-23T10:23:06.469Z,5.87
2019-01-23T10:25:35.812Z,5.91
2019-01-23T10:28:05.188Z,5.92
2019-01-23T10:30:34.532Z,5.93
2019-01-23T10:33:03.893Z,5.96
2019-01-23T10:35:33.257Z,5.98
2019-01-23T10:38:02.618Z,6.01
2019-01-23T10:40:31.993Z,6.06
2019-01-23T10:43:01.412Z,6.09
2019-01-23T10:45:30.907Z,6.12
2019-01-23T10:48:00.254Z,6.17
2019-01-23T10:50:29.638Z,6.18
2019-01-23T10:52:58.994Z,6.19
2019-01-23T10:55:28.390Z,6.21
2019-01-23T10:57:57.729Z,6.22
2019-01-23T11:00:29.293Z,6.26
2019-01-23T11:02:58.899Z,6.29
2019-01-23T11:05:28.379Z,6.35
2019-01-23T11:07:57.717Z,6.39
2019-01-23T11:10:27.066Z,6.43
2019-01-23T11:12:56.434Z,6.47
2019-01-23T11:15:25.991Z,6.50
2019-01-23T11:17:55.364Z,6.51
2019-01-23T11:20:24.730Z,6.53
2019-01-23T11:22:54.108Z,6.54
2019-01-23T11:25:23.454Z,6.54
2019-01-23T11:27:52.833Z,6.57
2019-01-23T11:30:24.240Z,6.56
2019-01-23T11:32:53.718Z,6.57
2019-01-23T11:35:23.186Z,6.59
2019-01-23T11:37:52.770Z,6.60
2019-01-23T11:40:24.660Z,6.62
2019-01-23T11:42:54.001Z,6.62
2019-01-23T11:45:23.466Z,6.65
2019-01-23T11:47:52.828Z,6.70
2019-01-23T11:50:23.234Z,6.73
2019-01-23T11:52:53.327Z,6.73
2019-01-23T11:55:22.702Z,6.76
2019-01-23T11:57:52.336Z,6.74
2019-01-23T12:00:23.110Z,6.78
2019-01-23T12:02:52.678Z,6.79
2019-01-23T12:05:22.842Z,6.80
2019-01-23T12:07:52.440Z,6.80
2019-01-23T12:10:23.034Z,6.80
2019-01-23T12:12:52.899Z,6.78
2019-01-23T12:15:23.564Z,6.77
2019-01-23T12:17:53.058Z,6.77
2019-01-23T12:20:23.169Z,6.77
2019-01-23T12:22:52.819Z,6.82
2019-01-23T12:25:22.184Z,6.84
2019-01-23T12:27:51.553Z,6.88
2019-01-23T12:30:26.338Z,6.91
2019-01-23T12:32:56.070Z,6.93
2019-01-23T12:35:25.506Z,6.97
2019-01-23T12:37:54.887Z,7.01
2019-01-23T12:40:24.231Z,7.08
2019-01-23T12:42:53.599Z,7.13
2019-01-23T12:45:25.085Z,7.16
2019-01-23T12:47:54.465Z,7.16
2019-01-23T12:50:26.390Z,7.14
2019-01-23T12:52:55.771Z,7.17
2019-01-23T12:55:25.210Z,7.20
2019-01-23T12:57:54.577Z,7.22
2019-01-23T13:00:28.722Z,7.24
2019-01-23T13:02:58.326Z,7.26
2019-01-23T13:05:27.879Z,7.29
2019-01-23T13:07:57.242Z,7.28
2019-01-23T13:10:26.877Z,7.26
2019-01-23T13:12:57.080Z,7.24
2019-01-23T13:15:27.218Z,7.21
2019-01-23T13:17:56.984Z,7.19
2019-01-23T13:20:26.670Z,7.19
2019-01-23T13:22:56.035Z,7.18
2019-01-23T13:25:26.823Z,7.18
2019-01-23T13:27:57.285Z,7.17
2019-01-23T13:30:27.207Z,7.18
2019-01-23T13:32:56.815Z,7.14
2019-01-23T13:35:28.756Z,7.11
2019-01-23T13:37:58.128Z,7.12
2019-01-23T13:40:33.272Z,7.10
2019-01-23T13:43:02.782Z,7.13
2019-01-23T13:45:32.124Z,7.15
2019-01-23T13:48:01.687Z,7.18
2019-01-23T13:50:31.045Z,7.19
2019-01-23T13:53:00.478Z,7.19
2019-01-23T13:55:29.823Z,7.18
2019-01-23T13:57:59.180Z,7.15
2019-01-23T14:00:34.547Z,7.11
2019-01-23T14:03:04.137Z,7.10
2019-01-23T14:05:33.481Z,7.06
2019-01-23T14:08:02.928Z,7.04
2019-01-23T14:10:32.300Z,7.02
2019-01-23T14:13:01.637Z,7.02
2019-01-23T14:15:33.080Z,7.01
2019-01-23T14:18:02.414Z,6.97
2019-01-23T14:20:31.809Z,6.94
2019-01-23T14:23:01.169Z,6.91
2019-01-23T14:25:30.524Z,6.88
2019-01-23T14:27:59.899Z,6.84
2019-01-23T14:30:34.714Z,6.83
2019-01-23T14:33:04.095Z,6.81
2019-01-23T14:35:34.382Z,6.82
2019-01-23T14:38:03.948Z,6.82
2019-01-23T14:40:33.313Z,6.83
2019-01-23T14:43:03.010Z,6.84
2019-01-23T14:45:32.378Z,6.84
2019-01-23T14:48:01.774Z,6.83
2019-01-23T14:50:31.346Z,6.83
2019-01-23T14:53:01.001Z,6.84
2019-01-23T14:55:30.606Z,6.84
2019-01-23T14:58:00.501Z,6.84
2019-01-23T15:00:30.086Z,6.84
2019-01-23T15:02:59.434Z,6.84
2019-01-23T15:05:29.124Z,6.83
2019-01-23T15:07:58.609Z,6.84
2019-01-23T15:10:29.944Z,6.84
2019-01-23T15:12:59.927Z,6.84
2019-01-23T15:15:29.469Z,6.83
2019-01-23T15:17:59.151Z,6.83
2019-01-23T15:20:36.810Z,6.83
2019-01-23T15:23:06.296Z,6.83
2019-01-23T15:25:35.877Z,6.81
2019-01-23T15:28:05.853Z,6.80
2019-01-23T15:30:35.315Z,6.80
2019-01-23T15:33:04.893Z,6.79
2019-01-23T15:35:34.574Z,6.79
2019-01-23T15:38:03.943Z,6.79
2019-01-23T15:40:36.081Z,6.80
2019-01-23T15:43:05.544Z,6.78
2019-01-23T15:45:34.988Z,6.79
2019-01-23T15:48:04.448Z,6.78
2019-01-23T15:50:33.833Z,6.78
2019-01-23T15:53:03.192Z,6.77
2019-01-23T15:55:32.828Z,6.77
2019-01-23T15:58:02.174Z,6.75
2019-01-23T16:00:32.782Z,6.75
2019-01-23T16:03:02.147Z,6.75
2019-01-23T16:05:31.498Z,6.73
2019-01-23T16:08:00.887Z,6.73
2019-01-23T16:10:30.667Z,6.73
2019-01-23T16:13:00.020Z,6.72
2019-01-23T16:15:30.284Z,6.73
2019-01-23T16:17:59.689Z,6.72
2019-01-23T16:20:29.190Z,6.72
2019-01-23T16:22:58.569Z,6.71
2019-01-23T16:25:27.997Z,6.71
2019-01-23T16:27:57.374Z,6.70
2019-01-23T16:30:29.715Z,6.70
2019-01-23T16:32:59.182Z,6.68
2019-01-23T16:35:28.620Z,6.66
2019-01-23T16:37:58.010Z,6.65
2019-01-23T16:40:27.475Z,6.64
2019-01-23T16:42:56.867Z,6.63
2019-01-23T16:45:26.576Z,6.62
2019-01-23T16:47:55.945Z,6.60
2019-01-23T16:50:26.111Z,6.59
2019-01-23T16:52:55.648Z,6.58
2019-01-23T16:55:25.503Z,6.57
2019-01-23T16:57:55.182Z,6.56
2019-01-23T17:00:25.355Z,6.54
2019-01-23T17:02:54.943Z,6.53
2019-01-23T17:05:26.822Z,6.52
2019-01-23T17:07:57.397Z,6.50
2019-01-23T17:10:27.350Z,6.49
2019-01-23T17:12:56.743Z,6.49
2019-01-23T17:15:26.278Z,6.48
2019-01-23T17:17:55.882Z,6.46
2019-01-23T17:20:31.936Z,6.46
2019-01-23T17:23:01.309Z,6.44
2019-01-23T17:25:30.876Z,6.44
2019-01-23T17:28:00.407Z,6.42
2019-01-23T17:30:29.907Z,6.42
2019-01-23T17:32:59.252Z,6.40
2019-01-23T17:35:28.630Z,6.40
2019-01-23T17:37:58.025Z,6.41
2019-01-23T17:40:27.407Z,6.39
2019-01-23T17:42:56.896Z,6.39
2019-01-23T17:45:28.423Z,6.38
2019-01-23T17:47:57.785Z,6.39
2019-01-23T17:50:27.181Z,6.38
2019-01-23T17:52:56.803Z,6.37
2019-01-23T17:55:28.582Z,6.36
2019-01-23T17:57:58.372Z,6.36
2019-01-23T18:00:29.503Z,6.36
2019-01-23T18:02:58.878Z,6.35
2019-01-23T18:05:28.254Z,6.35
2019-01-23T18:07:57.608Z,6.34
2019-01-23T18:10:28.340Z,6.34
2019-01-23T18:12:57.923Z,6.34
2019-01-23T18:15:27.570Z,6.33
2019-01-23T18:17:58.001Z,6.33
2019-01-23T18:20:28.826Z,6.32
2019-01-23T18:22:58.507Z,6.32
2019-01-23T18:25:27.861Z,6.32
2019-01-23T18:27:57.267Z,6.31
2019-01-23T18:30:30.048Z,6.31
2019-01-23T18:33:00.536Z,6.31
2019-01-23T18:35:51.562Z,6.30
2019-01-23T18:38:53.806Z,6.30
2019-01-23T18:42:28.377Z,6.29
2019-01-23T18:45:25.331Z,6.29
2019-01-23T18:48:47.309Z,6.27
2019-01-23T18:51:27.053Z,6.26
2019-01-23T18:53:56.461Z,6.25
2019-01-23T18:56:25.845Z,6.26
2019-01-23T18:58:55.587Z,6.25
2019-01-23T19:01:24.963Z,6.24
2019-01-23T19:03:54.358Z,6.23
2019-01-23T19:06:23.686Z,6.22
2019-01-23T19:08:53.085Z,6.21
2019-01-23T19:11:22.455Z,6.19
2019-01-23T19:13:51.882Z,6.19
2019-01-23T19:16:21.273Z,6.17
2019-01-23T19:18:50.645Z,6.16
2019-01-23T19:21:20.038Z,6.15
2019-01-23T19:23:49.451Z,6.14
2019-01-23T19:26:18.898Z,6.13
2019-01-23T19:28:48.284Z,6.12
2019-01-23T19:31:17.733Z,6.11
2019-01-23T19:33:48.229Z,6.09
2019-01-23T19:36:18.014Z,6.09
2019-01-23T19:38:47.434Z,6.08
2019-01-23T19:41:20.385Z,6.06
2019-01-23T19:43:47.898Z,6.05
2019-01-23T19:46:17.389Z,6.04
2019-01-23T19:48:46.959Z,6.03
2019-01-23T19:51:16.470Z,6.02
2019-01-23T19:53:45.927Z,6.01
2019-01-23T19:56:15.387Z,5.99
2019-01-23T19:58:44.750Z,5.99
2019-01-23T20:01:14.168Z,5.97
2019-01-23T20:03:43.564Z,5.96
2019-01-23T20:06:12.935Z,5.95
2019-01-23T20:08:42.632Z,5.95
2019-01-23T20:11:12.447Z,5.95
2019-01-23T20:13:41.920Z,5.95
2019-01-23T20:16:11.300Z,5.95
2019-01-23T20:18:40.717Z,5.94
2019-01-23T20:21:10.120Z,5.94
2019-01-23T20:23:39.489Z,5.95
2019-01-23T20:26:08.907Z,5.94
2019-01-23T20:28:38.560Z,5.94
2019-01-23T20:31:09.962Z,5.95
2019-01-23T20:33:39.355Z,5.94
2019-01-23T20:36:08.744Z,5.92
2019-01-23T20:38:38.220Z,5.93
2019-01-23T20:41:08.651Z,5.92
2019-01-23T20:43:38.116Z,5.90
2019-01-23T20:46:07.723Z,5.90
2019-01-23T20:48:37.134Z,5.90
2019-01-23T20:51:06.560Z,5.89
2019-01-23T20:53:35.996Z,5.88
2019-01-23T20:56:05.907Z,5.86
2019-01-23T20:58:35.320Z,5.85
2019-01-23T21:01:05.006Z,5.84
2019-01-23T21:03:35.140Z,5.83
2019-01-23T21:06:04.856Z,5.83
2019-01-23T21:08:34.279Z,5.83
2019-01-23T21:11:03.707Z,5.82
2019-01-23T21:13:33.072Z,5.82
2019-01-23T21:16:02.822Z,5.81
2019-01-23T21:18:32.250Z,5.82
2019-01-23T21:21:01.756Z,5.83
2019-01-23T21:23:31.119Z,5.81
2019-01-23T21:26:00.583Z,5.81
2019-01-23T21:28:29.997Z,5.81
2019-01-23T21:30:59.483Z,5.81
2019-01-23T21:33:28.844Z,5.81
2019-01-23T21:35:58.236Z,5.81
2019-01-23T21:38:27.699Z,5.81
2019-01-23T21:40:57.524Z,5.80
2019-01-23T21:43:26.939Z,5.78
2019-01-23T21:45:56.366Z,5.78
2019-01-23T21:48:25.915Z,5.79
2019-01-23T21:50:55.406Z,5.78
2019-01-23T21:53:24.836Z,5.79
2019-01-23T21:55:54.216Z,5.79
2019-01-23T21:58:23.555Z,5.81
2019-01-23T22:00:56.297Z,5.80
2019-01-23T22:03:25.723Z,5.79
2019-01-23T22:05:55.057Z,5.79
2019-01-23T22:08:24.432Z,5.80
2019-01-23T22:10:53.814Z,5.78
2019-01-23T22:13:23.164Z,5.80
2019-01-23T22:15:52.537Z,5.79
2019-01-23T22:18:21.904Z,5.79
2019-01-23T22:20:51.244Z,5.79
2019-01-23T22:23:20.622Z,5.79
2019-01-23T22:25:50.011Z,5.79
2019-01-23T22:28:19.402Z,5.78
2019-01-23T22:30:48.751Z,5.79
2019-01-23T22:33:18.124Z,5.79
2019-01-23T22:35:47.502Z,5.78
2019-01-23T22:38:16.864Z,5.78
2019-01-23T22:40:46.226Z,5.78
2019-01-23T22:43:15.585Z,5.79
2019-01-23T22:45:44.950Z,5.79
2019-01-23T22:48:14.324Z,5.79
2019-01-23T22:50:43.670Z,5.80
2019-01-23T22:53:13.840Z,5.79
2019-01-23T22:55:43.153Z,5.80
2019-01-23T22:58:15.607Z,5.79
2019-01-23T23:01:26.118Z,5.81
2019-01-23T23:03:55.653Z,5.80
2019-01-23T23:06:30.465Z,5.79
2019-01-23T23:08:59.861Z,5.79
2019-01-23T23:11:29.219Z,5.80
2019-01-23T23:13:58.574Z,5.79
2019-01-23T23:16:27.930Z,5.79
2019-01-23T23:18:57.329Z,5.80
2019-01-23T23:21:26.800Z,5.79
2019-01-23T23:23:56.186Z,5.79
2019-01-23T23:26:25.615Z,5.79
2019-01-23T23:28:55.006Z,5.78
2019-01-23T23:31:24.380Z,5.78
2019-01-23T23:33:53.764Z,5.79
2019-01-23T23:36:23.085Z,5.79
2019-01-23T23:38:52.460Z,5.78
2019-01-23T23:41:21.830Z,5.75
2019-01-23T23:43:51.182Z,5.74
2019-01-23T23:46:20.549Z,5.71
2019-01-23T23:48:49.900Z,5.70
2019-01-23T23:51:19.266Z,5.69
2019-01-23T23:53:48.596Z,5.68
2019-01-23T23:56:17.978Z,5.67
2019-01-23T23:58:47.339Z,5.66
